Prairie Rose, North Dakota
Current Conditions -  °F | °C
As of 11:53 AM on Sunday 21 Dec 2014 (Local Time) from KFAR Reporting Station
Haze Haze  
Wind Chill: -5°   Ceiling: 600
Heat Index:   Visibility: 4mi
Dew Point: -2°   Wind: 16mph
Humidity: 85%   Direction: 160°SSE
Pressure: 29.67"   Gusts: NA
Location:  46.8079°N, 96.8643°W
Report Text: KFAR 211753Z 16014KT 4SM BR OVC006 01/M02 A2967 RMK AO2 SLP059 T00061017 10006 20000 58018
Loading
Personal Weather Stations






























Interactive Weather Map New forecast layout! Learn more

10-Day Weather Forecast

Advertisements
Track Severe Weather on mobile